Terminal Aerodrome Forecast
Issued by NWS Chicago, IL

Home | Current Version | Previous Version | Graphics & Text | Print | Product List | Glossary On
Versions: 1 2 3 4 5 6 7 8 9 10 11 12 13 14 15 16 17 18 19 20 21 22 23 24 25 26 27 28 29 30 31 32
000
FTUS43 KLOT 291120
TAFRFD
TAF
KRFD 291120Z 2912/3012 VRB03KT 1SM BR SCT001 BKN005
      TEMPO 2912/2914 1/2SM FG BKN001
     FM291500 33005KT P6SM SCT012 BKN020
     FM291900 30007KT P6SM VCSH BKN035
     FM300100 VRB03KT P6SM BKN035
     FM300600 28005KT 5SM -SHRA BR BKN010 OVC018
     FM301000 30006KT P6SM VCSH BKN040 OVC120=

USA.gov is the U.S. government's official web portal to all federal, state and local government web resources and services.